Time;durP1;ratioP1;P1;durP2;ratioP2;P2;SDS_P1;SDS_P2;PMS_P1;PMS_P2;Temp;Humidity;BMP_temperature;BMP_pressure;BME280_temperature;BME280_humidity;BME280_pressure;Samples;Min_cycle;Max_cycle;Signal;HPM_P1;HPM_P2
2022/12/05 00:00:13;;;;;;;;;;;;;;;10.99;49.57;100749.47;4974757;27;114263;-65
2022/12/05 00:02:39;;;;;;;;;;;;;;;10.98;49.68;100739.78;4961307;27;100499;-65
2022/12/05 00:05:06;;;;;;;;;;;;;;;10.98;49.74;100745.16;4974966;27;125575;-65
2022/12/05 00:07:31;;;;;;;;;;;;;;;10.99;49.66;100746.78;4979245;27;100085;-65
2022/12/05 00:09:57;;;;;;;;;;;;;;;10.98;49.52;100745.16;4974725;27;128337;-65
2022/12/05 00:12:23;;;;;;;;;;;;;;;10.98;49.63;100739.78;4965905;27;116312;-65
2022/12/05 00:14:49;;;;;;;;;;;;;;;10.97;49.50;100746.25;4975284;27;127351;-66
2022/12/05 00:17:15;;;;;;;;;;;;;;;10.98;49.55;100742.47;4976230;27;117112;-65
2022/12/05 00:19:41;;;;;;;;;;;;;;;10.97;49.57;100743.56;4977250;27;127974;-65
2022/12/05 00:22:07;;;;;;;;;;;;;;;10.98;49.79;100745.16;4963693;27;127581;-66
2022/12/05 00:24:33;;;;;;;;;;;;;;;10.97;49.92;100744.34;4978725;27;125863;-64
2022/12/05 00:26:59;;;;;;;;;;;;;;;10.97;49.60;100743.56;4976882;27;117448;-64
2022/12/05 00:29:25;;;;;;;;;;;;;;;10.97;49.53;100744.34;4973811;27;127464;-66
2022/12/05 00:31:50;;;;;;;;;;;;;;;10.97;49.61;100749.75;4966693;27;98915;-65
2022/12/05 00:34:16;;;;;;;;;;;;;;;10.96;49.79;100742.72;4970326;27;128566;-65
2022/12/05 00:36:42;;;;;;;;;;;;;;;10.96;49.38;100748.09;4961452;27;97839;-65
2022/12/05 00:39:11;;;;;;;;;;;;;;;10.96;49.69;100744.59;4978167;27;119449;-65
2022/12/05 00:41:37;;;;;;;;;;;;;;;10.95;49.55;100741.09;4965411;28;98318;-65
2022/12/05 00:44:03;;;;;;;;;;;;;;;10.95;49.37;100741.09;4979952;27;112788;-64
2022/12/05 00:46:30;;;;;;;;;;;;;;;10.95;49.71;100738.41;4980070;27;97756;-64
2022/12/05 00:48:56;;;;;;;;;;;;;;;10.95;49.53;100740.28;4980132;27;118213;-64
2022/12/05 00:51:30;;;;;;;;;;;;;;;10.95;49.47;100738.41;4970273;27;118120;-66
2022/12/05 00:54:04;;;;;;;;;;;;;;;10.95;49.63;100738.41;4969363;27;111790;-65
2022/12/05 00:56:30;;;;;;;;;;;;;;;10.95;49.75;100741.09;4977473;27;98876;-64
2022/12/05 00:58:56;;;;;;;;;;;;;;;10.95;49.53;100737.59;4982489;27;98911;-65
2022/12/05 01:01:25;;;;;;;;;;;;;;;10.94;49.67;100744.06;4969859;27;98407;-66
2022/12/05 01:03:53;;;;;;;;;;;;;;;10.96;49.50;100752.69;4954132;27;98372;-64
2022/12/05 01:06:19;;;;;;;;;;;;;;;10.95;49.86;100745.69;4983248;27;97873;-66
2022/12/05 01:08:45;;;;;;;;;;;;;;;10.96;49.65;100744.59;4982066;27;107237;-64
2022/12/05 01:11:13;;;;;;;;;;;;;;;10.95;49.74;100749.19;4972092;27;128376;-65
2022/12/05 01:13:39;;;;;;;;;;;;;;;10.95;49.76;100748.38;4973952;27;125384;-65
2022/12/05 01:16:05;;;;;;;;;;;;;;;10.95;49.84;100746.50;4980030;27;117569;-65
2022/12/05 01:18:31;;;;;;;;;;;;;;;10.95;49.68;100746.50;4979265;27;126048;-64
2022/12/05 01:20:57;;;;;;;;;;;;;;;10.95;49.78;100745.69;4975318;27;123680;-65
2022/12/05 01:23:23;;;;;;;;;;;;;;;10.95;49.57;100746.50;4959960;28;125566;-65
2022/12/05 01:25:50;;;;;;;;;;;;;;;10.96;49.48;100747.31;4980774;27;98091;-65
2022/12/05 01:28:16;;;;;;;;;;;;;;;10.96;49.53;100752.69;4981085;27;111477;-66
2022/12/05 01:30:44;;;;;;;;;;;;;;;10.95;49.58;100748.38;4977114;27;125512;-66
2022/12/05 01:33:10;;;;;;;;;;;;;;;10.95;49.74;100746.50;4970844;27;98654;-66
2022/12/05 01:35:36;;;;;;;;;;;;;;;10.95;49.60;100741.09;4973109;27;110958;-64
2022/12/05 01:38:03;;;;;;;;;;;;;;;10.95;49.88;100743.00;4978944;27;128764;-65
2022/12/05 01:40:29;;;;;;;;;;;;;;;10.96;49.73;100745.41;4979928;27;123060;-65
2022/12/05 01:42:54;;;;;;;;;;;;;;;10.96;49.61;100747.31;4969496;27;119624;-65
2022/12/05 01:45:32;;;;;;;;;;;;;;;10.96;49.64;100755.41;4980801;27;97802;-64
2022/12/05 01:47:59;;;;;;;;;;;;;;;10.96;49.65;100748.09;4963803;27;99046;-65
2022/12/05 01:50:25;;;;;;;;;;;;;;;10.96;49.44;100745.41;4961570;28;125252;-65
2022/12/05 01:52:51;;;;;;;;;;;;;;;10.97;49.40;100748.94;4967588;27;124629;-65
2022/12/05 01:55:17;;;;;;;;;;;;;;;10.96;49.87;100744.59;4980339;27;119004;-66
2022/12/05 01:57:44;;;;;;;;;;;;;;;10.96;49.61;100742.72;4970834;27;124321;-64
2022/12/05 02:00:15;;;;;;;;;;;;;;;10.95;49.59;100743.78;4951240;27;128555;-66
2022/12/05 02:02:47;;;;;;;;;;;;;;;10.96;49.68;100742.72;4966992;27;111742;-65
2022/12/05 02:05:19;;;;;;;;;;;;;;;10.96;49.48;100748.09;4977428;27;112915;-66
2022/12/05 02:07:45;;;;;;;;;;;;;;;10.96;49.65;100742.72;4965232;27;98534;-66
2022/12/05 02:10:11;;;;;;;;;;;;;;;10.96;49.49;100748.09;4961912;28;101339;-64
2022/12/05 02:12:37;;;;;;;;;;;;;;;10.96;49.68;100748.09;4962043;28;98185;-66
2022/12/05 02:15:21;;;;;;;;;;;;;;;10.96;49.83;100739.22;4963677;27;115629;-65
2022/12/05 02:18:14;;;;;;;;;;;;;;;10.95;49.91;100743.78;4974487;27;98689;-65
2022/12/05 02:21:05;;;;;;;;;;;;;;;10.95;49.59;100745.69;4960410;28;98969;-66
2022/12/05 02:23:34;;;;;;;;;;;;;;;10.96;49.63;100753.50;4970446;27;98816;-66
2022/12/05 02:26:20;;;;;;;;;;;;;;;10.96;49.64;100741.91;4974442;27;97816;-64
2022/12/05 02:29:01;;;;;;;;;;;;;;;10.97;49.69;100748.94;4964751;27;127582;-65
2022/12/05 02:31:34;;;;;;;;;;;;;;;10.96;49.65;100747.31;4961183;28;98702;-65
2022/12/05 02:34:09;;;;;;;;;;;;;;;10.96;49.60;100739.22;4956313;27;98539;-66
2022/12/05 02:37:07;;;;;;;;;;;;;;;10.96;49.64;100740.00;4977879;27;98070;-64
2022/12/05 02:39:57;;;;;;;;;;;;;;;10.97;49.63;100747.06;4949554;27;99142;-65
2022/12/05 02:42:40;;;;;;;;;;;;;;;10.97;49.54;100751.66;4948072;28;128119;-64
2022/12/05 02:45:11;;;;;;;;;;;;;;;10.97;49.63;100746.25;4922679;28;123778;-64
2022/12/05 02:47:44;;;;;;;;;;;;;;;10.98;49.75;100747.88;4940815;28;117004;-65
2022/12/05 02:50:11;;;;;;;;;;;;;;;10.97;49.61;100744.34;4976086;27;125023;-64
2022/12/05 02:52:37;;;;;;;;;;;;;;;10.98;49.67;100747.88;4954429;28;98509;-65
2022/12/05 02:55:03;;;;;;;;;;;;;;;10.97;49.49;100744.34;4963595;27;127706;-65
2022/12/05 02:57:28;;;;;;;;;;;;;;;10.97;49.42;100741.66;4962107;28;112762;-67
2022/12/05 02:59:54;;;;;;;;;;;;;;;10.98;49.55;100742.47;4943108;27;128474;-64
2022/12/05 03:02:30;;;;;;;;;;;;;;;10.97;49.56;100747.06;4966502;27;127926;-66
2022/12/05 03:05:00;;;;;;;;;;;;;;;10.97;49.68;100744.34;4978909;27;97990;-64
2022/12/05 03:07:26;;;;;;;;;;;;;;;10.97;49.68;100744.34;4962174;28;116333;-66
2022/12/05 03:09:59;;;;;;;;;;;;;;;10.98;49.67;100739.78;4960022;27;128280;-64
2022/12/05 03:12:29;;;;;;;;;;;;;;;10.97;49.75;100744.34;4960996;28;100470;-64
2022/12/05 03:15:08;;;;;;;;;;;;;;;10.97;49.41;100738.97;4967995;27;123876;-64
2022/12/05 03:17:37;;;;;;;;;;;;;;;10.97;49.48;100733.56;4977694;27;116548;-63
2022/12/05 03:20:03;;;;;;;;;;;;;;;10.98;49.67;100737.88;4974647;27;121508;-64
2022/12/05 03:22:36;;;;;;;;;;;;;;;10.98;49.51;100739.78;4968031;27;98865;-64
2022/12/05 03:25:02;;;;;;;;;;;;;;;10.98;49.51;100740.59;4958166;27;98371;-64
2022/12/05 03:27:50;;;;;;;;;;;;;;;10.99;49.61;100741.38;4960387;27;98257;-65
2022/12/05 03:30:17;;;;;;;;;;;;;;;10.98;49.60;100739.78;4970926;27;98536;-64
2022/12/05 03:32:52;;;;;;;;;;;;;;;10.98;49.68;100734.38;4958720;27;128186;-64
2022/12/05 03:35:22;;;;;;;;;;;;;;;10.99;49.75;100739.50;4975521;27;99491;-64
2022/12/05 03:37:51;;;;;;;;;;;;;;;10.99;49.72;100733.28;4965456;27;97927;-66
2022/12/05 03:40:42;;;;;;;;;;;;;;;10.99;49.75;100744.09;4961428;28;127659;-65
2022/12/05 03:43:22;;;;;;;;;;;;;;;10.99;49.56;100736.81;4976477;27;98728;-64
2022/12/05 03:46:00;;;;;;;;;;;;;;;10.98;49.86;100737.06;4979503;27;98436;-64
2022/12/05 03:48:54;;;;;;;;;;;;;;;11.00;49.38;100734.91;4959514;28;113729;-65
2022/12/05 03:51:21;;;;;;;;;;;;;;;10.98;49.38;100732.50;4958060;27;99442;-64
2022/12/05 03:54:05;;;;;;;;;;;;;;;10.97;49.81;100736.28;4959932;27;128033;-66
2022/12/05 03:57:04;;;;;;;;;;;;;;;10.95;49.51;100743.78;4960601;28;98105;-66
2022/12/05 03:59:48;;;;;;;;;;;;;;;10.93;49.78;100739.75;4966442;27;97937;-65
2022/12/05 04:02:17;;;;;;;;;;;;;;;10.92;49.43;100741.63;4955070;27;127461;-66
2022/12/05 04:04:52;;;;;;;;;;;;;;;10.89;49.72;100739.47;4974038;27;124946;-66
2022/12/05 04:07:18;;;;;;;;;;;;;;;10.88;49.56;100753.19;4943596;28;115251;-66
2022/12/05 04:09:49;;;;;;;;;;;;;;;10.88;49.78;100751.31;4959491;27;116216;-64
2022/12/05 04:12:18;;;;;;;;;;;;;;;10.87;49.59;100765.06;4960049;27;102442;-66
2022/12/05 04:14:49;;;;;;;;;;;;;;;10.87;49.80;100755.09;4956644;27;120192;-66
2022/12/05 04:17:29;;;;;;;;;;;;;;;10.86;49.50;100752.66;4965830;27;122241;-65
2022/12/05 04:22:53;;;;;;;;;;;;;;;10.85;49.63;100743.75;4949606;27;98166;-64
2022/12/05 04:25:34;;;;;;;;;;;;;;;10.85;49.55;100756.44;4974556;27;128186;-64
2022/12/05 04:28:31;;;;;;;;;;;;;;;10.85;49.46;100761.84;4963288;27;98214;-63
2022/12/05 04:31:09;;;;;;;;;;;;;;;10.84;49.69;100755.59;4977942;27;98896;-65
2022/12/05 04:33:49;;;;;;;;;;;;;;;10.85;49.77;100751.06;4957496;27;98555;-64
2022/12/05 04:36:16;;;;;;;;;;;;;;;10.85;49.62;100764.53;4976387;27;98863;-64
2022/12/05 04:38:51;;;;;;;;;;;;;;;10.84;49.61;100749.41;4960372;28;103160;-64
2022/12/05 04:41:23;;;;;;;;;;;;;;;10.84;49.52;100755.59;4960019;28;97792;-64
2022/12/05 04:43:48;;;;;;;;;;;;;;;10.84;49.55;100754.78;4960081;27;98154;-63
2022/12/05 04:46:15;;;;;;;;;;;;;;;10.84;49.47;100761.00;4971138;27;126207;-65
2022/12/05 04:48:43;;;;;;;;;;;;;;;10.84;49.70;100758.31;4955711;27;97978;-65
2022/12/05 04:51:11;;;;;;;;;;;;;;;10.82;49.82;100753.19;4960785;27;98078;-65
2022/12/05 04:53:37;;;;;;;;;;;;;;;10.85;49.79;100764.53;4958241;28;128623;-65
2022/12/05 04:56:03;;;;;;;;;;;;;;;10.84;49.55;100763.69;4959900;27;128178;-63
2022/12/05 04:58:30;;;;;;;;;;;;;;;10.84;49.79;100763.69;4962080;28;119699;-65
2022/12/05 05:01:02;;;;;;;;;;;;;;;10.85;49.62;100762.66;4958488;27;116775;-66
2022/12/05 05:03:30;;;;;;;;;;;;;;;10.85;49.57;100762.66;4946789;28;99970;-65
2022/12/05 05:05:56;;;;;;;;;;;;;;;10.86;49.51;100763.44;4965793;27;124665;-64
2022/12/05 05:08:26;;;;;;;;;;;;;;;10.87;49.61;100765.06;4963351;27;103125;-65
2022/12/05 05:11:13;;;;;;;;;;;;;;;10.88;49.84;100758.59;4983422;27;98111;-64
2022/12/05 05:13:39;;;;;;;;;;;;;;;10.88;49.38;100766.69;4980507;27;126581;-64
2022/12/05 05:16:05;;;;;;;;;;;;;;;10.89;49.43;100769.13;4980407;27;99865;-66
2022/12/05 05:18:32;;;;;;;;;;;;;;;10.89;49.59;100757.53;4975839;27;123597;-65
2022/12/05 05:20:58;;;;;;;;;;;;;;;10.90;49.59;100764.56;4974151;27;97924;-64
2022/12/05 05:23:24;;;;;;;;;;;;;;;10.91;49.77;100777.75;4971195;27;99148;-65
2022/12/05 05:25:53;;;;;;;;;;;;;;;10.91;49.63;100766.97;4977023;27;121337;-64
2022/12/05 05:28:19;;;;;;;;;;;;;;;10.92;49.57;100763.19;4980890;27;102790;-64
2022/12/05 05:30:45;;;;;;;;;;;;;;;10.93;49.76;100764.03;4978415;27;117822;-64
2022/12/05 05:33:11;;;;;;;;;;;;;;;10.93;49.47;100759.44;4971135;27;126187;-63
2022/12/05 05:35:37;;;;;;;;;;;;;;;10.95;49.43;100767.25;4977981;27;128687;-66
2022/12/05 05:38:03;;;;;;;;;;;;;;;10.95;49.46;100761.88;4980893;27;98285;-65
2022/12/05 05:40:29;;;;;;;;;;;;;;;10.95;49.43;100767.25;4980957;27;97939;-63
2022/12/05 05:42:55;;;;;;;;;;;;;;;10.96;49.81;100769.69;4971061;27;98402;-64
2022/12/05 05:45:21;;;;;;;;;;;;;;;10.96;49.58;100769.69;4977160;27;128133;-65
2022/12/05 05:47:48;;;;;;;;;;;;;;;10.97;49.50;100768.63;4979788;27;128312;-63
2022/12/05 05:50:14;;;;;;;;;;;;;;;10.98;49.57;100766.75;4979902;27;97815;-65
2022/12/05 05:52:40;;;;;;;;;;;;;;;10.98;49.58;100767.56;4958445;28;117706;-64
2022/12/05 05:55:06;;;;;;;;;;;;;;;10.99;49.55;100768.38;4975094;27;99474;-64
2022/12/05 05:57:32;;;;;;;;;;;;;;;11.00;49.38;100772.69;4979073;27;97907;-64
2022/12/05 05:59:58;;;;;;;;;;;;;;;11.00;49.70;100776.22;4977909;27;98056;-66
2022/12/05 06:02:24;;;;;;;;;;;;;;;11.01;49.67;100775.13;4958187;27;129232;-63
2022/12/05 06:04:50;;;;;;;;;;;;;;;11.02;49.78;100770.53;4976342;27;128217;-64
2022/12/05 06:07:16;;;;;;;;;;;;;;;11.02;49.53;100773.25;4955648;27;126937;-64
2022/12/05 06:09:42;;;;;;;;;;;;;;;11.03;49.82;100777.56;4973882;27;116873;-64
2022/12/05 06:12:08;;;;;;;;;;;;;;;11.03;49.74;100782.94;4957259;27;98813;-65
2022/12/05 06:14:34;;;;;;;;;;;;;;;11.04;49.51;100788.09;4974677;27;128037;-65
2022/12/05 06:16:59;;;;;;;;;;;;;;;11.03;49.67;100775.66;4953389;27;125284;-65
2022/12/05 06:19:25;;;;;;;;;;;;;;;11.04;49.70;100785.41;4958239;28;117079;-65
2022/12/05 06:21:51;;;;;;;;;;;;;;;11.05;49.71;100788.91;4963634;27;119153;-65
2022/12/05 06:24:17;;;;;;;;;;;;;;;11.05;49.48;100784.31;4970860;27;128769;-65
2022/12/05 06:26:43;;;;;;;;;;;;;;;11.06;49.60;100795.91;4973142;27;127961;-65
2022/12/05 06:29:09;;;;;;;;;;;;;;;11.05;49.72;100784.31;4975641;27;107138;-63
2022/12/05 06:31:35;;;;;;;;;;;;;;;11.07;49.66;100792.13;4962472;27;128803;-65
2022/12/05 06:34:02;;;;;;;;;;;;;;;11.06;49.69;100788.63;4960383;27;99980;-65
2022/12/05 06:36:28;;;;;;;;;;;;;;;11.07;49.64;100784.03;4974079;27;98723;-64
2022/12/05 06:38:56;;;;;;;;;;;;;;;11.08;49.73;100793.75;4975380;27;98059;-66
2022/12/05 06:41:23;;;;;;;;;;;;;;;11.09;49.68;100797.28;4967935;27;99153;-65
2022/12/05 06:43:52;;;;;;;;;;;;;;;11.08;49.43;100799.16;4968362;27;98263;-64
2022/12/05 06:46:18;;;;;;;;;;;;;;;11.09;49.62;100806.19;4974539;27;98253;-65
2022/12/05 06:48:44;;;;;;;;;;;;;;;11.10;49.61;100812.41;4972486;27;98285;-64
2022/12/05 06:51:11;;;;;;;;;;;;;;;11.10;49.61;100818.59;4963626;27;128009;-64
2022/12/05 06:53:37;;;;;;;;;;;;;;;11.10;49.67;100824.00;4971946;27;98891;-64
2022/12/05 06:56:06;;;;;;;;;;;;;;;11.12;49.75;100823.72;4972035;27;99136;-64
2022/12/05 06:58:32;;;;;;;;;;;;;;;11.12;49.56;100823.72;4972258;27;97972;-64
2022/12/05 07:03:47;;;;;;;;;;;;;;;11.14;49.76;100824.28;4967839;27;98546;-65
2022/12/05 07:06:13;;;;;;;;;;;;;;;11.14;49.46;100832.38;4970342;27;98245;-66
2022/12/05 07:08:40;;;;;;;;;;;;;;;11.14;49.53;100835.88;4959512;27;113254;-65
2022/12/05 07:11:06;;;;;;;;;;;;;;;11.16;49.72;100833.75;4967682;27;99297;-66
2022/12/05 07:13:32;;;;;;;;;;;;;;;11.16;49.65;100836.44;4966080;27;111856;-64
2022/12/05 07:15:58;;;;;;;;;;;;;;;11.17;49.65;100827.28;4954111;27;126560;-65
2022/12/05 07:18:24;;;;;;;;;;;;;;;11.18;49.60;100830.78;4972739;27;118586;-64
2022/12/05 07:21:03;;;;;;;;;;;;;;;11.22;49.71;100824.59;4953340;28;127190;-64
2022/12/05 07:23:29;;;;;;;;;;;;;;;11.31;49.62;100831.09;4972347;27;121126;-66
2022/12/05 07:25:56;;;;;;;;;;;;;;;11.40;49.65;100820.63;4974457;27;126532;-64
2022/12/05 07:28:22;;;;;;;;;;;;;;;11.48;49.68;100830.13;4977234;27;98159;-64
2022/12/05 07:30:48;;;;;;;;;;;;;;;11.55;49.62;100833.34;4973832;27;124395;-64
2022/12/05 07:33:14;;;;;;;;;;;;;;;11.60;49.75;100832.59;4964525;27;126616;-65
2022/12/05 07:35:40;;;;;;;;;;;;;;;11.64;49.79;100828.28;4977321;27;98418;-64
2022/12/05 07:38:06;;;;;;;;;;;;;;;11.69;49.55;100833.69;4977398;27;118216;-65
2022/12/05 07:40:32;;;;;;;;;;;;;;;11.73;49.61;100837.47;4975085;27;128300;-66
2022/12/05 07:42:58;;;;;;;;;;;;;;;11.75;49.59;100832.59;4966418;27;126861;-63
2022/12/05 07:45:23;;;;;;;;;;;;;;;11.79;49.50;100836.44;4956297;28;128098;-64
2022/12/05 07:47:49;;;;;;;;;;;;;;;11.83;49.50;100833.97;4956496;27;114267;-65
2022/12/05 07:50:15;;;;;;;;;;;;;;;11.86;49.71;100838.88;4971880;27;128420;-64
2022/12/05 07:52:41;;;;;;;;;;;;;;;11.89;49.52;100832.94;4971278;27;127471;-66
2022/12/05 07:55:07;;;;;;;;;;;;;;;11.93;49.64;100825.94;4968738;27;129318;-64
2022/12/05 07:57:33;;;;;;;;;;;;;;;11.96;49.50;100828.91;4972192;27;98060;-65
2022/12/05 07:59:59;;;;;;;;;;;;;;;11.97;49.57;100829.72;4968443;27;127910;-64
2022/12/05 08:02:25;;;;;;;;;;;;;;;11.98;49.53;100842.94;4940392;28;129629;-66
2022/12/05 08:04:51;;;;;;;;;;;;;;;12.02;49.52;100837.81;4958055;27;98308;-65
2022/12/05 08:07:17;;;;;;;;;;;;;;;12.05;49.78;100837.31;4953496;28;116434;-65
2022/12/05 08:09:43;;;;;;;;;;;;;;;12.06;49.42;100838.91;4955936;28;127922;-65
2022/12/05 08:12:09;;;;;;;;;;;;;;;12.08;49.52;100836.78;4954352;27;128195;-66
2022/12/05 08:14:35;;;;;;;;;;;;;;;12.10;49.69;100839.19;4953469;28;121574;-64
2022/12/05 08:17:00;;;;;;;;;;;;;;;12.10;49.56;100837.28;4970868;27;105946;-65
2022/12/05 08:19:26;;;;;;;;;;;;;;;12.11;49.66;100840.84;4967818;27;126032;-65
2022/12/05 08:21:54;;;;;;;;;;;;;;;12.13;49.45;100847.56;4963394;27;128054;-65
2022/12/05 08:24:20;;;;;;;;;;;;;;;12.13;49.42;100838.66;4955659;27;117354;-64
2022/12/05 08:26:46;;;;;;;;;;;;;;;12.13;49.77;100841.38;4973267;27;98121;-67
2022/12/05 08:29:13;;;;;;;;;;;;;;;12.13;49.41;100850.28;4970504;27;128133;-64
2022/12/05 08:31:45;;;;;;;;;;;;;;;12.16;49.68;100846.25;4955466;28;98414;-64
2022/12/05 08:34:12;;;;;;;;;;;;;;;12.17;49.57;100856.78;4958403;27;98834;-64
2022/12/05 08:36:37;;;;;;;;;;;;;;;12.16;49.70;100851.66;4973637;27;112818;-64
2022/12/05 08:39:04;;;;;;;;;;;;;;;12.17;49.81;100851.38;4970251;27;128532;-66
2022/12/05 08:41:30;;;;;;;;;;;;;;;12.16;49.68;100852.44;4969555;27;99384;-64
2022/12/05 08:44:04;;;;;;;;;;;;;;;12.18;49.42;100853.00;4935951;28;110983;-64
2022/12/05 08:46:30;;;;;;;;;;;;;;;12.18;49.45;100866.53;4969174;27;97937;-64
2022/12/05 08:48:56;;;;;;;;;;;;;;;12.19;49.51;100856.53;4974067;27;106494;-64
2022/12/05 08:51:22;;;;;;;;;;;;;;;12.19;49.41;100861.94;4969026;27;98733;-64
2022/12/05 08:53:48;;;;;;;;;;;;;;;12.20;49.59;100866.25;4974105;27;98612;-65
2022/12/05 08:56:14;;;;;;;;;;;;;;;12.21;49.51;100865.16;4976297;27;98044;-64
2022/12/05 08:58:40;;;;;;;;;;;;;;;12.20;49.58;100866.25;4972037;27;98887;-64
2022/12/05 09:01:06;;;;;;;;;;;;;;;12.20;49.63;100871.66;4973086;27;98933;-64
2022/12/05 09:03:32;;;;;;;;;;;;;;;12.20;49.54;100869.75;4973931;27;98223;-66
2022/12/05 09:06:06;;;;;;;;;;;;;;;12.21;49.50;100868.66;4975491;27;114352;-66
2022/12/05 09:08:31;;;;;;;;;;;;;;;12.23;49.48;100873.81;4974829;27;98569;-64
2022/12/05 09:10:57;;;;;;;;;;;;;;;12.23;49.60;100871.94;4969313;27;126582;-64
2022/12/05 09:13:23;;;;;;;;;;;;;;;12.22;49.54;100870.31;4963794;28;127456;-66
2022/12/05 09:15:49;;;;;;;;;;;;;;;12.21;49.55;100876.78;4975970;27;117911;-65
2022/12/05 09:18:15;;;;;;;;;;;;;;;12.18;49.66;100877.34;4974274;27;98483;-64
2022/12/05 09:20:41;;;;;;;;;;;;;;;12.18;49.68;100877.34;4977043;27;126956;-65
2022/12/05 09:23:07;;;;;;;;;;;;;;;12.17;49.90;100875.69;4978787;27;127470;-66
2022/12/05 09:25:33;;;;;;;;;;;;;;;12.18;49.67;100881.91;4976495;27;118801;-64
2022/12/05 09:27:59;;;;;;;;;;;;;;;12.16;49.68;100887.59;4977710;27;126976;-64
2022/12/05 09:30:25;;;;;;;;;;;;;;;12.18;49.78;100880.03;4977283;27;107048;-65
2022/12/05 09:32:50;;;;;;;;;;;;;;;12.17;49.72;100881.09;4968756;27;128295;-65
2022/12/05 09:35:16;;;;;;;;;;;;;;;12.19;49.60;100878.94;4959182;28;117509;-66
2022/12/05 09:37:42;;;;;;;;;;;;;;;12.20;49.48;100871.66;4976822;27;126871;-64
2022/12/05 09:40:15;;;;;;;;;;;;;;;12.23;49.35;100874.63;4962842;27;128219;-65
2022/12/05 09:43:06;;;;;;;;;;;;;;;12.28;49.63;100873.81;4944017;27;98280;-65
2022/12/05 09:45:36;;;;;;;;;;;;;;;12.31;49.51;100877.88;4944128;28;98226;-64
2022/12/05 09:48:12;;;;;;;;;;;;;;;12.34;49.47;100882.72;4955047;27;121268;-64
2022/12/05 09:50:45;;;;;;;;;;;;;;;12.35;49.48;100881.69;4967777;27;127340;-64
2022/12/05 09:53:19;;;;;;;;;;;;;;;12.39;49.43;100877.34;4966215;27;98385;-66
2022/12/05 09:55:46;;;;;;;;;;;;;;;12.42;49.29;100877.63;4972839;27;98292;-66
2022/12/05 09:58:21;;;;;;;;;;;;;;;12.47;49.14;100888.44;4971377;27;98825;-64
2022/12/05 10:00:51;;;;;;;;;;;;;;;12.47;49.11;100888.44;4942522;28;100984;-65
2022/12/05 10:03:25;;;;;;;;;;;;;;;12.49;49.43;100888.97;4947406;28;98057;-66
2022/12/05 10:06:17;;;;;;;;;;;;;;;12.50;49.46;100889.81;4971390;27;97799;-64
2022/12/05 10:08:46;;;;;;;;;;;;;;;12.51;49.56;100888.72;4957966;28;117572;-64
2022/12/05 10:11:41;;;;;;;;;;;;;;;12.53;49.53;100883.81;4959669;27;100674;-64
2022/12/05 10:14:11;;;;;;;;;;;;;;;12.54;49.49;100882.78;4960077;27;98967;-64
2022/12/05 10:16:59;;;;;;;;;;;;;;;12.54;49.53;100880.06;4973798;27;118665;-66
2022/12/05 10:19:37;;;;;;;;;;;;;;;12.55;49.46;100881.69;4955704;28;123660;-66
2022/12/05 10:22:12;;;;;;;;;;;;;;;12.57;49.30;100878.69;4958087;27;122993;-66
2022/12/05 10:24:40;;;;;;;;;;;;;;;12.57;49.36;100878.69;4973519;27;127730;-66
2022/12/05 10:27:07;;;;;;;;;;;;;;;12.57;49.59;100884.91;4959195;27;115301;-66
2022/12/05 10:29:48;;;;;;;;;;;;;;;12.57;49.54;100884.91;4975824;27;98639;-66
2022/12/05 10:32:18;;;;;;;;;;;;;;;12.57;49.18;100887.63;4973619;27;121730;-65
2022/12/05 10:34:44;;;;;;;;;;;;;;;12.58;49.49;100885.75;4975122;27;99056;-64
2022/12/05 10:37:15;;;;;;;;;;;;;;;12.58;49.37;100885.75;4976431;27;116897;-66
2022/12/05 10:39:41;;;;;;;;;;;;;;;12.58;49.64;100877.63;4958403;27;100659;-65
2022/12/05 10:42:10;;;;;;;;;;;;;;;12.59;49.47;100877.34;4969638;27;99363;-64
2022/12/05 10:44:36;;;;;;;;;;;;;;;12.59;49.42;100880.06;4959765;28;121294;-65
2022/12/05 10:47:02;;;;;;;;;;;;;;;12.59;49.41;100887.38;4976443;27;116431;-64
2022/12/05 10:49:27;;;;;;;;;;;;;;;12.56;49.57;100874.38;4974939;27;98961;-64
2022/12/05 10:51:53;;;;;;;;;;;;;;;12.60;49.43;100881.66;4969084;27;98547;-64
2022/12/05 10:54:29;;;;;;;;;;;;;;;12.60;49.39;100884.38;4971191;27;127974;-66
2022/12/05 10:56:55;;;;;;;;;;;;;;;12.58;49.38;100875.75;4952821;27;98620;-64
2022/12/05 10:59:24;;;;;;;;;;;;;;;12.62;49.60;100886.84;4955391;28;120107;-66
2022/12/05 11:01:59;;;;;;;;;;;;;;;12.63;49.52;100886.53;4966212;27;126953;-64
2022/12/05 11:04:29;;;;;;;;;;;;;;;12.64;49.69;100884.66;4958345;28;127780;-64
2022/12/05 11:06:59;;;;;;;;;;;;;;;12.65;49.41;100888.97;4973748;27;98101;-66
2022/12/05 11:09:27;;;;;;;;;;;;;;;12.65;49.41;100880.84;4956540;28;101495;-64
2022/12/05 11:12:12;;;;;;;;;;;;;;;12.68;49.50;100883.03;4958785;27;98460;-65
2022/12/05 11:14:38;;;;;;;;;;;;;;;12.69;49.43;100873.81;4954607;28;98431;-64
2022/12/05 11:17:04;;;;;;;;;;;;;;;12.71;49.43;100874.38;4960722;27;117629;-64
2022/12/05 11:19:32;;;;;;;;;;;;;;;12.72;49.25;100881.41;4973247;27;98323;-66
2022/12/05 11:21:58;;;;;;;;;;;;;;;12.72;49.35;100879.50;4958006;27;98956;-66
2022/12/05 11:24:31;;;;;;;;;;;;;;;12.74;49.23;100879.25;4956113;28;117345;-64
2022/12/05 11:26:58;;;;;;;;;;;;;;;12.76;49.50;100877.06;4975096;27;98657;-64
2022/12/05 11:29:37;;;;;;;;;;;;;;;12.78;49.48;100872.22;4962831;28;114320;-67
2022/12/05 11:32:04;;;;;;;;;;;;;;;12.80;49.59;100870.03;4967500;27;111170;-65
2022/12/05 11:34:46;;;;;;;;;;;;;;;12.81;49.11;100877.09;4977149;27;98192;-64
2022/12/05 11:37:13;;;;;;;;;;;;;;;12.82;49.47;100877.91;4942666;27;98254;-64
2022/12/05 11:39:40;;;;;;;;;;;;;;;12.80;49.39;100880.84;4955946;27;124322;-66
2022/12/05 11:42:08;;;;;;;;;;;;;;;12.79;49.30;100876.53;4965348;27;127052;-66
2022/12/05 11:45:04;;;;;;;;;;;;;;;12.81;49.40;100865.44;4974396;27;98313;-64
2022/12/05 11:47:59;;;;;;;;;;;;;;;12.85;49.55;100866.50;4944579;28;97954;-65
2022/12/05 11:50:50;;;;;;;;;;;;;;;12.87;49.46;100858.94;4946947;27;98477;-64
2022/12/05 11:53:25;;;;;;;;;;;;;;;12.88;49.41;100866.78;4961503;27;98474;-64
2022/12/05 11:55:53;;;;;;;;;;;;;;;12.90;49.57;100861.09;4973516;27;98351;-65
2022/12/05 11:58:31;;;;;;;;;;;;;;;12.91;49.42;100855.41;4957311;28;109231;-64
2022/12/05 12:01:25;;;;;;;;;;;;;;;12.92;49.57;100854.31;4970867;27;99382;-65
2022/12/05 12:04:24;;;;;;;;;;;;;;;12.91;49.43;100852.72;4956576;27;98492;-66
2022/12/05 12:07:16;;;;;;;;;;;;;;;12.90;49.58;100839.47;4960472;27;121688;-65
2022/12/05 12:09:48;;;;;;;;;;;;;;;12.86;49.35;100836.50;4971266;27;98159;-66
2022/12/05 12:12:24;;;;;;;;;;;;;;;12.85;49.64;100842.16;4941670;27;117288;-65
2022/12/05 12:15:07;;;;;;;;;;;;;;;12.83;49.46;100839.75;4957485;28;106275;-64
2022/12/05 12:17:45;;;;;;;;;;;;;;;12.81;49.65;100849.19;4977017;27;97954;-65
2022/12/05 12:20:25;;;;;;;;;;;;;;;12.80;49.54;100850.28;4945432;27;113238;-64
2022/12/05 12:23:12;;;;;;;;;;;;;;;12.78;49.76;100845.97;4968998;27;108045;-64
2022/12/05 12:26:01;;;;;;;;;;;;;;;12.80;49.50;100850.28;4957835;28;98712;-64
2022/12/05 12:28:44;;;;;;;;;;;;;;;12.81;49.55;100850.03;4975000;27;98709;-64
2022/12/05 12:31:23;;;;;;;;;;;;;;;12.82;49.55;100840.81;4964669;27;99905;-64
2022/12/05 12:34:14;;;;;;;;;;;;;;;12.82;49.53;100840.03;4958666;27;99185;-64
2022/12/05 12:36:54;;;;;;;;;;;;;;;12.83;49.56;100836.22;4978295;27;98601;-66
2022/12/05 12:39:32;;;;;;;;;;;;;;;12.84;49.42;100841.34;4946301;27;99066;-64
2022/12/05 12:42:22;;;;;;;;;;;;;;;12.85;49.74;100840.28;4088006;27;10001037;-65
2022/12/05 12:45:03;;;;;;;;;;;;;;;12.86;49.28;100843.81;4960956;28;100307;-64
2022/12/05 12:47:50;;;;;;;;;;;;;;;12.87;49.73;100837.28;4087792;27;10000380;-66
2022/12/05 12:50:21;;;;;;;;;;;;;;;12.86;49.57;100846.50;4970743;27;98809;-64
2022/12/05 12:53:02;;;;;;;;;;;;;;;12.84;49.71;100854.06;4967644;27;99376;-65